createdAt,value
2024-05-09T00:03:20.727Z,101225.55
2024-05-09T00:07:23.537Z,101225.52
2024-05-09T00:11:26.543Z,101223.84
2024-05-09T00:15:30.781Z,101226.41
2024-05-09T00:19:33.854Z,101232.14
2024-05-09T00:23:37.046Z,101232.71
2024-05-09T00:27:41.508Z,101233.99
2024-05-09T00:31:44.309Z,101228.98
2024-05-09T00:35:46.998Z,101224.46
2024-05-09T00:39:49.802Z,101223.23
2024-05-09T00:43:52.525Z,101227.91
2024-05-09T00:47:55.684Z,101226.11
2024-05-09T00:51:58.868Z,101226.70
2024-05-09T00:56:01.791Z,101232.44
2024-05-09T01:00:07.802Z,101228.17
2024-05-09T01:04:13.765Z,101230.47
2024-05-09T01:08:16.771Z,101228.81
2024-05-09T01:12:19.772Z,101224.05
2024-05-09T01:16:22.677Z,101228.92
2024-05-09T01:20:36.600Z,101230.59
2024-05-09T01:24:44.146Z,101232.71
2024-05-09T01:28:46.914Z,101233.10
2024-05-09T01:32:49.959Z,101230.56
2024-05-09T01:36:53.004Z,101235.73
2024-05-09T01:40:56.066Z,101238.10
2024-05-09T01:44:58.941Z,101239.30
2024-05-09T01:49:01.917Z,101238.52
2024-05-09T01:53:04.867Z,101240.73
2024-05-09T01:57:07.648Z,101239.15
2024-05-09T02:01:10.423Z,101236.21
2024-05-09T02:05:13.361Z,101242.27
2024-05-09T02:09:16.208Z,101249.23
2024-05-09T02:13:18.947Z,101251.58
2024-05-09T02:17:21.791Z,101250.89
2024-05-09T02:21:24.606Z,101250.56
2024-05-09T02:25:27.586Z,101245.31
2024-05-09T02:29:30.574Z,101245.99
2024-05-09T02:33:33.624Z,101245.19
2024-05-09T02:37:36.893Z,101240.19
2024-05-09T02:41:39.638Z,101241.20
2024-05-09T02:45:42.379Z,101241.04
2024-05-09T02:49:45.484Z,101241.60
2024-05-09T02:53:48.271Z,101238.86
2024-05-09T02:57:51.278Z,101231.11
2024-05-09T03:01:54.301Z,101233.23
2024-05-09T03:05:57.000Z,101230.80
2024-05-09T03:09:59.697Z,101229.32
2024-05-09T03:14:02.546Z,101227.98
2024-05-09T03:18:06.409Z,101232.94
2024-05-09T03:22:09.851Z,101236.83
2024-05-09T03:26:13.378Z,101238.88
2024-05-09T03:30:28.813Z,101238.92
2024-05-09T03:34:41.573Z,101237.29
2024-05-09T03:38:44.576Z,101237.93
2024-05-09T03:42:47.506Z,101241.05
2024-05-09T03:46:50.281Z,101246.85
2024-05-09T03:50:53.078Z,101245.00
2024-05-09T03:54:55.812Z,101247.93
2024-05-09T03:58:58.568Z,101254.14
2024-05-09T04:03:01.799Z,101258.84
2024-05-09T04:07:05.004Z,101248.72
2024-05-09T04:15:13.403Z,101247.98
2024-05-09T04:19:16.696Z,101245.00
2024-05-09T04:23:19.641Z,101244.17
2024-05-09T04:27:22.377Z,101249.77
2024-05-09T04:31:25.092Z,101249.19
2024-05-09T04:35:27.999Z,101253.53
2024-05-09T04:39:30.934Z,101252.98
2024-05-09T04:43:35.158Z,101251.30
2024-05-09T04:47:42.041Z,101250.88
2024-05-09T04:51:45.107Z,101251.98
2024-05-09T04:55:47.883Z,101251.02
2024-05-09T04:59:50.763Z,101247.45
2024-05-09T05:03:55.882Z,101241.33
2024-05-09T05:07:59.190Z,101238.81
2024-05-09T05:12:02.954Z,101231.98
2024-05-09T05:16:05.915Z,101234.77
2024-05-09T05:20:12.690Z,101234.45
2024-05-09T05:24:17.822Z,101238.96
2024-05-09T05:28:21.430Z,101241.90
2024-05-09T05:32:24.771Z,101241.99
2024-05-09T05:36:27.784Z,101243.98
2024-05-09T05:40:36.529Z,101245.95
2024-05-09T05:44:40.990Z,101242.77
2024-05-09T05:48:43.707Z,101235.50
2024-05-09T05:52:46.691Z,101234.39
2024-05-09T05:56:49.440Z,101230.36
2024-05-09T06:00:53.526Z,101232.16
2024-05-09T06:04:56.719Z,101234.92
2024-05-09T06:08:59.856Z,101242.06
2024-05-09T06:13:02.520Z,101242.17
2024-05-09T06:17:05.179Z,101244.73
2024-05-09T06:21:08.146Z,101246.05
2024-05-09T06:25:11.114Z,101254.39
2024-05-09T06:29:14.153Z,101252.30
2024-05-09T06:33:17.228Z,101246.70
2024-05-09T06:37:20.179Z,101249.10
2024-05-09T06:41:22.887Z,101252.28
2024-05-09T06:45:25.658Z,101252.93
2024-05-09T06:49:30.136Z,101255.88
2024-05-09T06:53:33.147Z,101252.77
2024-05-09T06:57:37.238Z,101248.06
2024-05-09T07:01:41.299Z,101244.27
2024-05-09T07:05:44.823Z,101241.56
2024-05-09T07:09:47.855Z,101234.77
2024-05-09T07:13:50.823Z,101231.89
2024-05-09T07:17:53.817Z,101230.65
2024-05-09T07:21:58.017Z,101229.13
2024-05-09T07:26:00.848Z,101234.63
2024-05-09T07:30:05.595Z,101244.06
2024-05-09T07:34:11.812Z,101245.50
2024-05-09T07:38:14.904Z,101237.71
2024-05-09T07:42:17.928Z,101234.83
2024-05-09T07:47:14.622Z,101234.87
2024-05-09T07:54:49.296Z,101237.83
2024-05-09T07:58:55.710Z,101233.94
2024-05-09T08:02:58.675Z,101232.05
2024-05-09T08:07:01.583Z,101229.89
2024-05-09T08:11:06.576Z,101225.88
2024-05-09T08:15:09.593Z,101225.39
2024-05-09T08:19:12.801Z,101224.69
2024-05-09T08:23:15.812Z,101223.92
2024-05-09T08:27:18.557Z,101221.08
2024-05-09T08:31:21.513Z,101220.34
2024-05-09T08:35:24.379Z,101216.33
2024-05-09T08:39:27.233Z,101212.65
2024-05-09T08:43:30.827Z,101215.50
2024-05-09T08:47:34.067Z,101213.55
2024-05-09T08:51:37.219Z,101213.65
2024-05-09T08:55:43.186Z,101215.58
2024-05-09T08:59:50.824Z,101209.98
2024-05-09T09:03:55.257Z,101209.35
2024-05-09T09:07:58.164Z,101213.70
2024-05-09T09:12:01.127Z,101222.05
2024-05-09T09:16:04.377Z,101222.07
2024-05-09T09:20:14.122Z,101220.11
2024-05-09T09:24:19.337Z,101214.63
2024-05-09T09:28:23.300Z,101216.94
2024-05-09T09:32:28.974Z,101209.83
2024-05-09T09:36:31.942Z,101206.59
2024-05-09T09:40:40.748Z,101206.06
2024-05-09T09:44:58.001Z,101202.31
2024-05-09T09:49:08.416Z,101203.80
2024-05-09T09:53:12.572Z,101203.83
2024-05-09T09:57:16.125Z,101202.48
2024-05-09T10:01:19.021Z,101198.46
2024-05-09T10:05:23.393Z,101191.57
2024-05-09T10:09:26.502Z,101193.58
2024-05-09T10:13:35.257Z,101190.71
2024-05-09T10:17:38.597Z,101184.86
2024-05-09T10:21:47.088Z,101187.48
2024-05-09T10:25:57.121Z,101175.44
2024-05-09T10:30:07.014Z,101173.14
2024-05-09T10:34:22.194Z,101165.91
2024-05-09T10:38:26.356Z,101168.77
2024-05-09T10:42:29.620Z,101169.46
2024-05-09T10:46:32.523Z,101167.33
2024-05-09T10:50:35.312Z,101162.47
2024-05-09T10:54:39.573Z,101163.17
2024-05-09T10:58:42.554Z,101164.09
2024-05-09T11:02:48.320Z,101155.75
2024-05-09T11:06:51.246Z,101151.61
2024-05-09T11:10:55.384Z,101149.88
2024-05-09T11:14:58.340Z,101150.91
2024-05-09T11:19:01.254Z,101146.02
2024-05-09T11:23:05.747Z,101143.79
2024-05-09T11:27:08.595Z,101134.89
2024-05-09T11:31:11.675Z,101138.94
2024-05-09T11:35:14.526Z,101138.77
2024-05-09T11:39:17.515Z,101128.02
2024-05-09T11:43:21.055Z,101126.65
2024-05-09T11:47:24.620Z,101124.37
2024-05-09T11:51:27.678Z,101117.02
2024-05-09T11:55:31.033Z,101110.58
2024-05-09T11:59:33.885Z,101102.89
2024-05-09T12:03:37.793Z,101098.67
2024-05-09T12:07:43.391Z,101090.23
2024-05-09T12:11:46.393Z,101088.54
2024-05-09T12:15:49.279Z,101088.66
2024-05-09T12:19:52.790Z,101086.72
2024-05-09T12:23:55.675Z,101090.84
2024-05-09T12:27:58.643Z,101092.71
2024-05-09T12:32:01.557Z,101085.64
2024-05-09T12:36:04.645Z,101084.11
2024-05-09T12:40:15.823Z,101078.82
2024-05-09T12:55:12.174Z,101055.05
2024-05-09T12:59:16.600Z,101054.96
2024-05-09T13:03:22.168Z,101052.71
2024-05-09T13:07:28.685Z,101046.73
2024-05-09T13:12:01.859Z,101045.54
2024-05-09T13:16:05.642Z,101038.91
2024-05-09T13:20:36.306Z,101034.38
2024-05-09T13:24:40.894Z,101022.58
2024-05-09T13:28:43.945Z,101014.30
2024-05-09T13:32:47.678Z,101013.41
2024-05-09T13:36:50.898Z,101010.70
2024-05-09T13:40:55.231Z,101011.29
2024-05-09T13:44:58.503Z,101006.98
2024-05-09T13:49:03.134Z,101003.33
2024-05-09T13:53:07.701Z,101001.73
2024-05-09T13:57:12.092Z,100995.94
2024-05-09T14:02:15.283Z,100988.14
2024-05-09T14:06:18.667Z,100985.96
2024-05-09T14:10:28.658Z,100980.83
2024-05-09T14:14:37.599Z,100981.27
2024-05-09T14:18:41.465Z,100972.23
2024-05-09T14:22:45.759Z,100969.05
2024-05-09T14:27:19.092Z,100966.66
2024-05-09T14:31:24.450Z,100958.65
2024-05-09T14:35:28.960Z,100959.66
2024-05-09T14:39:31.963Z,100953.00
2024-05-09T14:43:36.344Z,100947.98
2024-05-09T14:47:39.563Z,100946.75
2024-05-09T14:51:48.550Z,100944.91
2024-05-09T14:55:51.601Z,100943.17
2024-05-09T15:00:29.630Z,100937.86
2024-05-09T15:04:38.941Z,100932.52
2024-05-09T15:08:56.722Z,100929.86
2024-05-09T15:12:59.865Z,100924.13
2024-05-09T15:17:03.985Z,100921.23
2024-05-09T15:21:07.458Z,100914.65
2024-05-09T15:25:11.276Z,100914.36
2024-05-09T15:29:14.513Z,100912.65
2024-05-09T15:33:19.392Z,100911.84
2024-05-09T15:37:23.665Z,100908.48
2024-05-09T15:41:29.602Z,100908.88
2024-05-09T15:45:32.656Z,100905.52
2024-05-09T15:49:35.865Z,100902.98
2024-05-09T15:53:39.133Z,100897.97
2024-05-09T15:57:42.129Z,100890.77
2024-05-09T16:01:48.750Z,100888.42
2024-05-09T16:05:52.139Z,100887.85
2024-05-09T16:09:55.849Z,100886.89
2024-05-09T16:13:58.916Z,100882.20
2024-05-09T16:18:05.001Z,100877.25
2024-05-09T16:22:08.067Z,100876.91
2024-05-09T16:26:17.335Z,100874.98
2024-05-09T16:30:27.884Z,100868.87
2024-05-09T16:34:38.379Z,100869.92
2024-05-09T16:38:42.942Z,100865.33
2024-05-09T16:42:46.117Z,100867.10
2024-05-09T16:46:49.097Z,100865.18
2024-05-09T16:50:52.118Z,100865.82
2024-05-09T16:54:55.088Z,100866.10
2024-05-09T16:58:58.123Z,100872.13
2024-05-09T17:03:01.044Z,100872.98
2024-05-09T17:07:04.932Z,100875.20
2024-05-09T17:11:07.939Z,100875.38
2024-05-09T17:15:11.246Z,100872.70
2024-05-09T17:19:14.157Z,100873.59
2024-05-09T17:23:17.322Z,100871.96
2024-05-09T17:27:20.210Z,100874.83
2024-05-09T17:31:22.951Z,100877.94
2024-05-09T17:35:25.862Z,100875.89
2024-05-09T17:39:28.603Z,100875.58
2024-05-09T17:43:31.454Z,100875.46
2024-05-09T17:47:35.980Z,100873.58
2024-05-09T17:51:38.931Z,100875.13
2024-05-09T17:55:42.505Z,100880.45
2024-05-09T17:59:45.652Z,100884.89
2024-05-09T18:03:50.046Z,100882.73
2024-05-09T18:07:55.418Z,100881.45
2024-05-09T18:12:00.017Z,100883.84
2024-05-09T18:16:02.868Z,100882.46
2024-05-09T18:20:08.948Z,100888.83
2024-05-09T18:24:11.987Z,100888.34
2024-05-09T18:28:15.572Z,100892.02
2024-05-09T18:32:18.717Z,100894.98
2024-05-09T18:36:21.811Z,100895.23
2024-05-09T18:40:32.783Z,100900.48
2024-05-09T18:44:38.798Z,100904.20
2024-05-09T18:48:41.855Z,100909.87
2024-05-09T18:52:44.906Z,100915.95
2024-05-09T18:56:47.713Z,100919.05
2024-05-09T19:00:53.273Z,100918.50
2024-05-09T19:04:58.002Z,100920.99
2024-05-09T19:09:00.857Z,100921.64
2024-05-09T19:13:09.343Z,100924.11
2024-05-09T19:17:15.494Z,100926.88
2024-05-09T19:21:18.349Z,100932.64
2024-05-09T19:25:21.064Z,100933.65
2024-05-09T19:29:24.060Z,100938.20
2024-05-09T19:33:26.853Z,100938.05
2024-05-09T19:37:31.543Z,100939.76
2024-05-09T19:41:34.302Z,100938.50
2024-05-09T19:45:37.300Z,100941.14
2024-05-09T19:49:40.469Z,100940.70
2024-05-09T19:53:43.473Z,100948.29
2024-05-09T19:57:46.619Z,100954.61
2024-05-09T20:01:49.661Z,100957.04
2024-05-09T20:05:52.663Z,100954.70
2024-05-09T20:09:55.534Z,100958.23
2024-05-09T20:13:59.689Z,100958.59
2024-05-09T20:18:04.075Z,100963.45
2024-05-09T20:22:07.230Z,100956.68
2024-05-09T20:26:10.704Z,100960.41
2024-05-09T20:30:20.911Z,100958.70
2024-05-09T20:34:28.379Z,100959.28
2024-05-09T20:38:31.388Z,100960.46
2024-05-09T20:42:34.259Z,100958.02
2024-05-09T20:46:37.026Z,100954.70
2024-05-09T20:50:42.530Z,100953.98
2024-05-09T20:54:46.406Z,100953.50
2024-05-09T20:58:49.326Z,100958.37
2024-05-09T21:02:52.203Z,100957.70
2024-05-09T21:06:55.131Z,100960.69
2024-05-09T21:10:58.046Z,100959.77
2024-05-09T21:15:00.904Z,100959.31
2024-05-09T21:19:03.884Z,100963.85
2024-05-09T21:23:06.772Z,100964.91
2024-05-09T21:27:09.654Z,100963.60
2024-05-09T21:31:12.533Z,100961.94
2024-05-09T21:35:15.436Z,100962.51
2024-05-09T21:39:18.327Z,100959.67
2024-05-09T21:43:21.319Z,100965.14
2024-05-09T21:47:24.640Z,100962.34
2024-05-09T21:51:27.410Z,100964.84
2024-05-09T21:55:30.294Z,100967.92
2024-05-09T21:59:33.123Z,100969.92
2024-05-09T22:03:36.215Z,100970.77
2024-05-09T22:07:40.335Z,100967.64
2024-05-09T22:11:43.146Z,100969.44
2024-05-09T22:15:45.946Z,100969.17
2024-05-09T22:19:49.582Z,100964.95
2024-05-09T22:23:52.387Z,100965.63
2024-05-09T22:27:55.208Z,100964.08
2024-05-09T22:31:58.031Z,100963.64
2024-05-09T22:36:00.741Z,100963.86
2024-05-09T22:40:06.801Z,100962.17
2024-05-09T22:44:10.013Z,100960.61
2024-05-09T22:48:13.118Z,100963.61
2024-05-09T22:52:16.154Z,100962.55
2024-05-09T22:56:29.208Z,100960.45
2024-05-09T23:00:33.250Z,100957.65
2024-05-09T23:04:38.391Z,100954.73
2024-05-09T23:08:41.328Z,100952.29
2024-05-09T23:12:44.144Z,100952.59
2024-05-09T23:16:46.989Z,100949.04
2024-05-09T23:20:49.993Z,100946.02
2024-05-09T23:24:52.751Z,100941.42
2024-05-09T23:28:55.514Z,100936.73
2024-05-09T23:32:58.443Z,100933.67
2024-05-09T23:37:01.413Z,100931.76
2024-05-09T23:41:06.132Z,100932.30
2024-05-09T23:45:09.050Z,100927.88
2024-05-09T23:49:12.156Z,100929.11
2024-05-09T23:53:15.057Z,100926.02
2024-05-09T23:57:17.816Z,100923.10
